sensor_id;sensor_type;location;lat;lon;timestamp;P1;durP1;ratioP1;P2;durP2;ratioP2
77123;SDS011;66079;47.646;19.130;2023-02-15T00:00:08;65.38;;;29.83;;
77123;SDS011;66079;47.646;19.130;2023-02-15T00:03:14;58.65;;;26.92;;
77123;SDS011;66079;47.646;19.130;2023-02-15T00:06:18;59.42;;;25.40;;
77123;SDS011;66079;47.646;19.130;2023-02-15T00:09:21;58.13;;;25.27;;
77123;SDS011;66079;47.646;19.130;2023-02-15T00:12:23;52.90;;;23.48;;
77123;SDS011;66079;47.646;19.130;2023-02-15T00:15:26;46.33;;;22.73;;
77123;SDS011;66079;47.646;19.130;2023-02-15T00:18:29;52.47;;;22.48;;
77123;SDS011;66079;47.646;19.130;2023-02-15T00:21:32;49.90;;;22.58;;
77123;SDS011;66079;47.646;19.130;2023-02-15T00:24:36;48.45;;;22.52;;
77123;SDS011;66079;47.646;19.130;2023-02-15T00:27:38;44.72;;;21.10;;
77123;SDS011;66079;47.646;19.130;2023-02-15T00:30:41;49.17;;;21.58;;
77123;SDS011;66079;47.646;19.130;2023-02-15T00:33:43;47.60;;;23.55;;
77123;SDS011;66079;47.646;19.130;2023-02-15T00:36:46;49.73;;;23.33;;
77123;SDS011;66079;47.646;19.130;2023-02-15T00:39:49;55.20;;;24.30;;
77123;SDS011;66079;47.646;19.130;2023-02-15T00:42:52;50.65;;;22.23;;
77123;SDS011;66079;47.646;19.130;2023-02-15T00:45:54;45.28;;;21.92;;
77123;SDS011;66079;47.646;19.130;2023-02-15T00:48:58;47.10;;;21.70;;
77123;SDS011;66079;47.646;19.130;2023-02-15T00:52:00;43.42;;;21.35;;
77123;SDS011;66079;47.646;19.130;2023-02-15T00:55:03;48.35;;;22.13;;
77123;SDS011;66079;47.646;19.130;2023-02-15T00:58:06;39.67;;;19.10;;
77123;SDS011;66079;47.646;19.130;2023-02-15T01:01:10;47.10;;;20.85;;
77123;SDS011;66079;47.646;19.130;2023-02-15T01:04:19;42.70;;;20.52;;
77123;SDS011;66079;47.646;19.130;2023-02-15T01:07:21;35.15;;;17.83;;
77123;SDS011;66079;47.646;19.130;2023-02-15T01:10:25;38.45;;;18.60;;
77123;SDS011;66079;47.646;19.130;2023-02-15T01:13:30;40.72;;;20.23;;
77123;SDS011;66079;47.646;19.130;2023-02-15T01:16:32;44.08;;;18.85;;
77123;SDS011;66079;47.646;19.130;2023-02-15T01:19:35;37.80;;;17.50;;
77123;SDS011;66079;47.646;19.130;2023-02-15T01:22:37;35.33;;;16.55;;
77123;SDS011;66079;47.646;19.130;2023-02-15T01:25:40;33.40;;;16.05;;
77123;SDS011;66079;47.646;19.130;2023-02-15T01:28:44;29.20;;;15.13;;
77123;SDS011;66079;47.646;19.130;2023-02-15T01:31:47;31.33;;;15.18;;
77123;SDS011;66079;47.646;19.130;2023-02-15T01:34:50;34.17;;;16.40;;
77123;SDS011;66079;47.646;19.130;2023-02-15T01:37:54;34.75;;;16.27;;
77123;SDS011;66079;47.646;19.130;2023-02-15T01:40:58;36.63;;;15.65;;
77123;SDS011;66079;47.646;19.130;2023-02-15T01:51:04;34.93;;;16.20;;
77123;SDS011;66079;47.646;19.130;2023-02-15T01:54:18;33.72;;;15.88;;
77123;SDS011;66079;47.646;19.130;2023-02-15T01:57:28;35.00;;;16.15;;
77123;SDS011;66079;47.646;19.130;2023-02-15T02:00:31;32.78;;;15.68;;
77123;SDS011;66079;47.646;19.130;2023-02-15T02:06:44;33.97;;;15.95;;
77123;SDS011;66079;47.646;19.130;2023-02-15T02:09:50;33.92;;;15.90;;
77123;SDS011;66079;47.646;19.130;2023-02-15T02:12:54;36.40;;;16.77;;
77123;SDS011;66079;47.646;19.130;2023-02-15T02:16:02;38.03;;;16.40;;
77123;SDS011;66079;47.646;19.130;2023-02-15T02:29:40;39.92;;;20.33;;
77123;SDS011;66079;47.646;19.130;2023-02-15T02:33:12;44.00;;;20.17;;
77123;SDS011;66079;47.646;19.130;2023-02-15T02:36:34;43.70;;;20.85;;
77123;SDS011;66079;47.646;19.130;2023-02-15T02:46:50;42.13;;;19.52;;
77123;SDS011;66079;47.646;19.130;2023-02-15T02:50:04;43.23;;;20.33;;
77123;SDS011;66079;47.646;19.130;2023-02-15T02:53:09;45.22;;;21.02;;
77123;SDS011;66079;47.646;19.130;2023-02-15T02:59:31;41.38;;;20.67;;
77123;SDS011;66079;47.646;19.130;2023-02-15T03:02:39;42.53;;;19.35;;
77123;SDS011;66079;47.646;19.130;2023-02-15T03:05:46;38.92;;;19.67;;
77123;SDS011;66079;47.646;19.130;2023-02-15T03:08:58;39.08;;;19.08;;
77123;SDS011;66079;47.646;19.130;2023-02-15T03:12:06;41.70;;;19.37;;
77123;SDS011;66079;47.646;19.130;2023-02-15T03:15:19;45.00;;;19.88;;
77123;SDS011;66079;47.646;19.130;2023-02-15T03:18:26;42.05;;;19.60;;
77123;SDS011;66079;47.646;19.130;2023-02-15T03:21:42;43.30;;;19.67;;
77123;SDS011;66079;47.646;19.130;2023-02-15T03:25:02;39.55;;;18.83;;
77123;SDS011;66079;47.646;19.130;2023-02-15T03:28:36;38.70;;;18.23;;
77123;SDS011;66079;47.646;19.130;2023-02-15T03:31:45;43.38;;;19.20;;
77123;SDS011;66079;47.646;19.130;2023-02-15T03:34:53;42.03;;;19.90;;
77123;SDS011;66079;47.646;19.130;2023-02-15T03:37:57;45.78;;;19.75;;
77123;SDS011;66079;47.646;19.130;2023-02-15T03:41:02;44.38;;;19.80;;
77123;SDS011;66079;47.646;19.130;2023-02-15T03:44:15;46.10;;;19.47;;
77123;SDS011;66079;47.646;19.130;2023-02-15T03:47:25;41.53;;;19.77;;
77123;SDS011;66079;47.646;19.130;2023-02-15T03:50:32;40.08;;;19.77;;
77123;SDS011;66079;47.646;19.130;2023-02-15T03:53:58;41.80;;;18.25;;
77123;SDS011;66079;47.646;19.130;2023-02-15T03:57:02;41.08;;;18.60;;
77123;SDS011;66079;47.646;19.130;2023-02-15T04:00:24;42.78;;;18.85;;
77123;SDS011;66079;47.646;19.130;2023-02-15T04:06:57;44.20;;;20.03;;
77123;SDS011;66079;47.646;19.130;2023-02-15T04:09:59;45.58;;;21.60;;
77123;SDS011;66079;47.646;19.130;2023-02-15T04:13:29;41.45;;;18.65;;
77123;SDS011;66079;47.646;19.130;2023-02-15T04:16:33;47.35;;;19.70;;
77123;SDS011;66079;47.646;19.130;2023-02-15T04:19:35;42.00;;;18.30;;
77123;SDS011;66079;47.646;19.130;2023-02-15T04:22:56;41.92;;;18.00;;
77123;SDS011;66079;47.646;19.130;2023-02-15T04:26:17;38.03;;;18.60;;
77123;SDS011;66079;47.646;19.130;2023-02-15T04:29:20;38.90;;;19.40;;
77123;SDS011;66079;47.646;19.130;2023-02-15T04:32:24;42.92;;;19.35;;
77123;SDS011;66079;47.646;19.130;2023-02-15T04:35:26;43.25;;;20.52;;
77123;SDS011;66079;47.646;19.130;2023-02-15T04:38:29;34.40;;;17.57;;
77123;SDS011;66079;47.646;19.130;2023-02-15T04:41:31;38.45;;;18.42;;
77123;SDS011;66079;47.646;19.130;2023-02-15T04:44:35;41.47;;;17.63;;
77123;SDS011;66079;47.646;19.130;2023-02-15T04:47:37;38.28;;;17.67;;
77123;SDS011;66079;47.646;19.130;2023-02-15T04:50:40;39.20;;;17.55;;
77123;SDS011;66079;47.646;19.130;2023-02-15T04:53:42;39.75;;;18.65;;
77123;SDS011;66079;47.646;19.130;2023-02-15T04:56:45;42.20;;;19.05;;
77123;SDS011;66079;47.646;19.130;2023-02-15T04:59:48;37.10;;;17.30;;
77123;SDS011;66079;47.646;19.130;2023-02-15T05:02:50;38.10;;;19.15;;
77123;SDS011;66079;47.646;19.130;2023-02-15T05:05:53;43.00;;;17.98;;
77123;SDS011;66079;47.646;19.130;2023-02-15T05:08:55;39.50;;;18.60;;
77123;SDS011;66079;47.646;19.130;2023-02-15T05:12:01;40.88;;;19.40;;
77123;SDS011;66079;47.646;19.130;2023-02-15T05:15:03;38.88;;;18.20;;
77123;SDS011;66079;47.646;19.130;2023-02-15T05:18:06;40.05;;;17.83;;
77123;SDS011;66079;47.646;19.130;2023-02-15T05:21:09;40.10;;;17.42;;
77123;SDS011;66079;47.646;19.130;2023-02-15T05:24:12;37.85;;;18.40;;
77123;SDS011;66079;47.646;19.130;2023-02-15T05:27:34;39.70;;;18.08;;
77123;SDS011;66079;47.646;19.130;2023-02-15T05:31:03;36.80;;;17.37;;
77123;SDS011;66079;47.646;19.130;2023-02-15T05:34:08;38.78;;;17.13;;
77123;SDS011;66079;47.646;19.130;2023-02-15T05:37:11;45.42;;;18.52;;
77123;SDS011;66079;47.646;19.130;2023-02-15T05:40:14;38.23;;;17.37;;
77123;SDS011;66079;47.646;19.130;2023-02-15T05:43:17;41.75;;;17.67;;
77123;SDS011;66079;47.646;19.130;2023-02-15T05:46:19;38.80;;;17.35;;
77123;SDS011;66079;47.646;19.130;2023-02-15T05:49:22;40.65;;;19.80;;
77123;SDS011;66079;47.646;19.130;2023-02-15T05:52:25;46.53;;;18.38;;
77123;SDS011;66079;47.646;19.130;2023-02-15T05:55:27;43.80;;;20.33;;
77123;SDS011;66079;47.646;19.130;2023-02-15T05:58:34;46.00;;;19.52;;
77123;SDS011;66079;47.646;19.130;2023-02-15T06:01:38;39.53;;;17.60;;
77123;SDS011;66079;47.646;19.130;2023-02-15T06:04:40;41.20;;;17.58;;
77123;SDS011;66079;47.646;19.130;2023-02-15T06:07:43;40.13;;;18.10;;
77123;SDS011;66079;47.646;19.130;2023-02-15T06:10:47;42.63;;;17.52;;
77123;SDS011;66079;47.646;19.130;2023-02-15T06:13:50;40.25;;;17.80;;
77123;SDS011;66079;47.646;19.130;2023-02-15T06:16:53;44.88;;;19.13;;
77123;SDS011;66079;47.646;19.130;2023-02-15T06:19:56;38.47;;;17.30;;
77123;SDS011;66079;47.646;19.130;2023-02-15T06:22:59;41.60;;;18.63;;
77123;SDS011;66079;47.646;19.130;2023-02-15T06:26:02;45.05;;;19.77;;
77123;SDS011;66079;47.646;19.130;2023-02-15T06:29:08;44.42;;;21.60;;
77123;SDS011;66079;47.646;19.130;2023-02-15T06:32:11;45.42;;;21.17;;
77123;SDS011;66079;47.646;19.130;2023-02-15T06:35:14;39.38;;;20.02;;
77123;SDS011;66079;47.646;19.130;2023-02-15T06:38:18;39.90;;;18.88;;
77123;SDS011;66079;47.646;19.130;2023-02-15T06:41:21;41.08;;;18.60;;
77123;SDS011;66079;47.646;19.130;2023-02-15T06:44:25;41.23;;;19.30;;
77123;SDS011;66079;47.646;19.130;2023-02-15T06:47:27;41.17;;;18.48;;
77123;SDS011;66079;47.646;19.130;2023-02-15T06:50:30;43.35;;;20.05;;
77123;SDS011;66079;47.646;19.130;2023-02-15T06:53:33;47.20;;;20.93;;
77123;SDS011;66079;47.646;19.130;2023-02-15T06:56:36;41.58;;;20.77;;
77123;SDS011;66079;47.646;19.130;2023-02-15T06:59:39;45.88;;;20.27;;
77123;SDS011;66079;47.646;19.130;2023-02-15T07:02:42;43.90;;;20.38;;
77123;SDS011;66079;47.646;19.130;2023-02-15T07:05:46;47.53;;;20.47;;
77123;SDS011;66079;47.646;19.130;2023-02-15T07:08:52;41.97;;;20.48;;
77123;SDS011;66079;47.646;19.130;2023-02-15T07:11:58;42.25;;;20.25;;
77123;SDS011;66079;47.646;19.130;2023-02-15T07:15:21;44.25;;;20.50;;
77123;SDS011;66079;47.646;19.130;2023-02-15T07:18:25;50.30;;;22.55;;
77123;SDS011;66079;47.646;19.130;2023-02-15T07:21:32;46.45;;;21.20;;
77123;SDS011;66079;47.646;19.130;2023-02-15T07:24:37;45.17;;;20.60;;
77123;SDS011;66079;47.646;19.130;2023-02-15T07:27:41;43.87;;;19.87;;
77123;SDS011;66079;47.646;19.130;2023-02-15T07:30:44;40.33;;;19.33;;
77123;SDS011;66079;47.646;19.130;2023-02-15T07:33:47;33.75;;;17.08;;
77123;SDS011;66079;47.646;19.130;2023-02-15T07:36:52;40.25;;;17.42;;
77123;SDS011;66079;47.646;19.130;2023-02-15T07:39:56;32.97;;;17.27;;
77123;SDS011;66079;47.646;19.130;2023-02-15T07:42:59;37.95;;;17.27;;
77123;SDS011;66079;47.646;19.130;2023-02-15T07:46:03;37.95;;;17.17;;
77123;SDS011;66079;47.646;19.130;2023-02-15T07:49:07;35.50;;;15.82;;
77123;SDS011;66079;47.646;19.130;2023-02-15T07:52:10;33.67;;;15.82;;
77123;SDS011;66079;47.646;19.130;2023-02-15T07:55:14;36.53;;;15.40;;
77123;SDS011;66079;47.646;19.130;2023-02-15T07:58:18;29.98;;;13.95;;
77123;SDS011;66079;47.646;19.130;2023-02-15T08:01:23;32.03;;;14.23;;
77123;SDS011;66079;47.646;19.130;2023-02-15T08:04:32;32.78;;;15.23;;
77123;SDS011;66079;47.646;19.130;2023-02-15T08:07:36;32.88;;;15.27;;
77123;SDS011;66079;47.646;19.130;2023-02-15T08:10:39;26.08;;;13.35;;
77123;SDS011;66079;47.646;19.130;2023-02-15T08:14:12;29.63;;;13.07;;
77123;SDS011;66079;47.646;19.130;2023-02-15T08:17:17;30.38;;;13.18;;
77123;SDS011;66079;47.646;19.130;2023-02-15T08:20:20;29.92;;;13.73;;
77123;SDS011;66079;47.646;19.130;2023-02-15T08:23:23;29.50;;;14.10;;
77123;SDS011;66079;47.646;19.130;2023-02-15T08:26:27;30.73;;;14.80;;
77123;SDS011;66079;47.646;19.130;2023-02-15T08:29:31;29.07;;;13.67;;
77123;SDS011;66079;47.646;19.130;2023-02-15T08:32:35;30.13;;;13.95;;
77123;SDS011;66079;47.646;19.130;2023-02-15T08:35:38;31.15;;;15.63;;
77123;SDS011;66079;47.646;19.130;2023-02-15T08:38:40;32.30;;;16.13;;
77123;SDS011;66079;47.646;19.130;2023-02-15T08:41:44;33.90;;;15.83;;
77123;SDS011;66079;47.646;19.130;2023-02-15T08:44:49;33.53;;;17.05;;
77123;SDS011;66079;47.646;19.130;2023-02-15T08:47:53;34.92;;;16.77;;
77123;SDS011;66079;47.646;19.130;2023-02-15T08:50:57;39.95;;;18.60;;
77123;SDS011;66079;47.646;19.130;2023-02-15T08:54:00;35.67;;;17.33;;
77123;SDS011;66079;47.646;19.130;2023-02-15T08:57:05;37.53;;;18.08;;
77123;SDS011;66079;47.646;19.130;2023-02-15T09:00:09;36.13;;;16.50;;
77123;SDS011;66079;47.646;19.130;2023-02-15T09:03:13;34.50;;;17.38;;
77123;SDS011;66079;47.646;19.130;2023-02-15T09:06:16;33.58;;;17.23;;
77123;SDS011;66079;47.646;19.130;2023-02-15T09:09:19;33.33;;;16.87;;
77123;SDS011;66079;47.646;19.130;2023-02-15T09:12:22;35.75;;;17.60;;
77123;SDS011;66079;47.646;19.130;2023-02-15T09:15:25;32.92;;;17.20;;
77123;SDS011;66079;47.646;19.130;2023-02-15T09:18:29;34.80;;;17.98;;
77123;SDS011;66079;47.646;19.130;2023-02-15T09:21:37;32.23;;;15.87;;
77123;SDS011;66079;47.646;19.130;2023-02-15T09:24:41;38.97;;;15.23;;
77123;SDS011;66079;47.646;19.130;2023-02-15T09:27:43;31.27;;;15.93;;
77123;SDS011;66079;47.646;19.130;2023-02-15T09:30:46;31.58;;;15.23;;
77123;SDS011;66079;47.646;19.130;2023-02-15T09:33:49;33.38;;;16.52;;
77123;SDS011;66079;47.646;19.130;2023-02-15T09:36:52;33.43;;;16.73;;
77123;SDS011;66079;47.646;19.130;2023-02-15T09:39:55;33.60;;;15.75;;
77123;SDS011;66079;47.646;19.130;2023-02-15T09:43:01;32.17;;;18.02;;
77123;SDS011;66079;47.646;19.130;2023-02-15T09:49:42;38.80;;;17.48;;
77123;SDS011;66079;47.646;19.130;2023-02-15T09:57:19;37.58;;;18.15;;
77123;SDS011;66079;47.646;19.130;2023-02-15T10:00:45;36.03;;;16.02;;
77123;SDS011;66079;47.646;19.130;2023-02-15T10:04:04;31.67;;;16.88;;
77123;SDS011;66079;47.646;19.130;2023-02-15T10:10:34;38.67;;;19.67;;
77123;SDS011;66079;47.646;19.130;2023-02-15T10:17:38;37.30;;;19.92;;
77123;SDS011;66079;47.646;19.130;2023-02-15T10:24:44;38.25;;;19.77;;
77123;SDS011;66079;47.646;19.130;2023-02-15T10:28:03;37.57;;;20.07;;
77123;SDS011;66079;47.646;19.130;2023-02-15T10:31:21;38.13;;;20.38;;
77123;SDS011;66079;47.646;19.130;2023-02-15T10:34:43;35.13;;;21.02;;
77123;SDS011;66079;47.646;19.130;2023-02-15T10:38:05;31.73;;;18.60;;
77123;SDS011;66079;47.646;19.130;2023-02-15T10:48:44;32.95;;;19.75;;
77123;SDS011;66079;47.646;19.130;2023-02-15T10:52:20;32.67;;;19.05;;
77123;SDS011;66079;47.646;19.130;2023-02-15T11:08:37;33.40;;;20.88;;
77123;SDS011;66079;47.646;19.130;2023-02-15T11:11:45;33.72;;;19.27;;
77123;SDS011;66079;47.646;19.130;2023-02-15T11:17:57;26.80;;;16.27;;
77123;SDS011;66079;47.646;19.130;2023-02-15T11:24:38;29.58;;;17.95;;
77123;SDS011;66079;47.646;19.130;2023-02-15T11:27:46;29.60;;;18.67;;
77123;SDS011;66079;47.646;19.130;2023-02-15T11:30:51;33.47;;;17.92;;
77123;SDS011;66079;47.646;19.130;2023-02-15T11:34:02;28.07;;;17.37;;
77123;SDS011;66079;47.646;19.130;2023-02-15T11:37:09;27.95;;;18.45;;
77123;SDS011;66079;47.646;19.130;2023-02-15T11:43:18;27.40;;;18.35;;
77123;SDS011;66079;47.646;19.130;2023-02-15T11:46:31;24.52;;;17.55;;
77123;SDS011;66079;47.646;19.130;2023-02-15T11:49:34;28.40;;;17.87;;
77123;SDS011;66079;47.646;19.130;2023-02-15T11:52:37;26.17;;;17.65;;
77123;SDS011;66079;47.646;19.130;2023-02-15T11:55:41;25.30;;;16.88;;
77123;SDS011;66079;47.646;19.130;2023-02-15T11:59:00;24.02;;;16.58;;
77123;SDS011;66079;47.646;19.130;2023-02-15T12:02:14;23.05;;;16.73;;
77123;SDS011;66079;47.646;19.130;2023-02-15T12:05:20;25.77;;;17.47;;
77123;SDS011;66079;47.646;19.130;2023-02-15T12:08:25;24.70;;;16.77;;
77123;SDS011;66079;47.646;19.130;2023-02-15T12:11:43;28.05;;;17.17;;
77123;SDS011;66079;47.646;19.130;2023-02-15T12:14:55;28.20;;;16.92;;
77123;SDS011;66079;47.646;19.130;2023-02-15T12:18:15;28.98;;;17.92;;
77123;SDS011;66079;47.646;19.130;2023-02-15T12:24:30;28.05;;;18.77;;
77123;SDS011;66079;47.646;19.130;2023-02-15T12:27:46;28.40;;;18.75;;
77123;SDS011;66079;47.646;19.130;2023-02-15T12:30:50;26.77;;;17.70;;
77123;SDS011;66079;47.646;19.130;2023-02-15T12:33:56;29.73;;;18.33;;
77123;SDS011;66079;47.646;19.130;2023-02-15T12:37:02;33.03;;;19.10;;
77123;SDS011;66079;47.646;19.130;2023-02-15T12:40:20;27.20;;;18.30;;
77123;SDS011;66079;47.646;19.130;2023-02-15T12:43:32;29.55;;;19.05;;
77123;SDS011;66079;47.646;19.130;2023-02-15T12:46:41;25.88;;;17.52;;
77123;SDS011;66079;47.646;19.130;2023-02-15T12:56:32;26.83;;;18.98;;
77123;SDS011;66079;47.646;19.130;2023-02-15T12:59:35;31.05;;;18.80;;
77123;SDS011;66079;47.646;19.130;2023-02-15T13:05:43;28.70;;;18.38;;
77123;SDS011;66079;47.646;19.130;2023-02-15T13:08:50;27.57;;;19.27;;
77123;SDS011;66079;47.646;19.130;2023-02-15T13:11:55;31.05;;;20.05;;
77123;SDS011;66079;47.646;19.130;2023-02-15T13:14:59;29.08;;;18.98;;
77123;SDS011;66079;47.646;19.130;2023-02-15T13:18:05;28.35;;;19.15;;
77123;SDS011;66079;47.646;19.130;2023-02-15T13:21:19;26.50;;;18.92;;
77123;SDS011;66079;47.646;19.130;2023-02-15T13:24:33;27.03;;;19.27;;
77123;SDS011;66079;47.646;19.130;2023-02-15T13:27:41;29.83;;;19.35;;
77123;SDS011;66079;47.646;19.130;2023-02-15T13:30:46;34.08;;;20.70;;
77123;SDS011;66079;47.646;19.130;2023-02-15T13:34:03;33.63;;;21.83;;
77123;SDS011;66079;47.646;19.130;2023-02-15T13:40:21;27.03;;;19.67;;
77123;SDS011;66079;47.646;19.130;2023-02-15T13:46:48;28.48;;;19.60;;
77123;SDS011;66079;47.646;19.130;2023-02-15T13:50:15;31.00;;;20.05;;
77123;SDS011;66079;47.646;19.130;2023-02-15T14:06:41;31.77;;;20.40;;
77123;SDS011;66079;47.646;19.130;2023-02-15T14:10:06;31.38;;;21.75;;
77123;SDS011;66079;47.646;19.130;2023-02-15T14:17:03;33.40;;;21.33;;
77123;SDS011;66079;47.646;19.130;2023-02-15T14:30:15;32.07;;;20.63;;
77123;SDS011;66079;47.646;19.130;2023-02-15T14:33:33;32.50;;;20.80;;
77123;SDS011;66079;47.646;19.130;2023-02-15T14:36:37;34.17;;;20.25;;
77123;SDS011;66079;47.646;19.130;2023-02-15T14:39:58;36.45;;;23.33;;
77123;SDS011;66079;47.646;19.130;2023-02-15T14:47:02;33.93;;;20.97;;
77123;SDS011;66079;47.646;19.130;2023-02-15T14:56:40;29.80;;;18.77;;
77123;SDS011;66079;47.646;19.130;2023-02-15T14:59:45;26.50;;;17.25;;
77123;SDS011;66079;47.646;19.130;2023-02-15T15:02:54;27.13;;;15.97;;
77123;SDS011;66079;47.646;19.130;2023-02-15T15:05:57;30.15;;;17.10;;
77123;SDS011;66079;47.646;19.130;2023-02-15T15:09:11;27.23;;;16.13;;
77123;SDS011;66079;47.646;19.130;2023-02-15T15:18:44;34.50;;;18.57;;
77123;SDS011;66079;47.646;19.130;2023-02-15T15:24:52;33.67;;;18.42;;
77123;SDS011;66079;47.646;19.130;2023-02-15T15:27:58;34.55;;;18.35;;
77123;SDS011;66079;47.646;19.130;2023-02-15T15:41:18;35.00;;;18.15;;
77123;SDS011;66079;47.646;19.130;2023-02-15T15:44:51;34.88;;;18.13;;
77123;SDS011;66079;47.646;19.130;2023-02-15T15:48:06;35.35;;;17.02;;
77123;SDS011;66079;47.646;19.130;2023-02-15T15:51:49;34.30;;;17.77;;
77123;SDS011;66079;47.646;19.130;2023-02-15T15:54:55;37.60;;;17.52;;
77123;SDS011;66079;47.646;19.130;2023-02-15T15:58:00;37.78;;;19.48;;
77123;SDS011;66079;47.646;19.130;2023-02-15T16:01:10;42.10;;;21.05;;
77123;SDS011;66079;47.646;19.130;2023-02-15T16:04:23;41.20;;;21.75;;
77123;SDS011;66079;47.646;19.130;2023-02-15T16:07:32;35.60;;;19.23;;
77123;SDS011;66079;47.646;19.130;2023-02-15T16:10:34;36.20;;;18.25;;
77123;SDS011;66079;47.646;19.130;2023-02-15T16:13:40;34.67;;;18.20;;
77123;SDS011;66079;47.646;19.130;2023-02-15T16:16:51;31.92;;;17.13;;
77123;SDS011;66079;47.646;19.130;2023-02-15T16:20:00;35.40;;;17.80;;
77123;SDS011;66079;47.646;19.130;2023-02-15T16:29:41;40.60;;;20.65;;
77123;SDS011;66079;47.646;19.130;2023-02-15T16:32:44;39.40;;;20.13;;
77123;SDS011;66079;47.646;19.130;2023-02-15T16:35:54;38.58;;;19.58;;
77123;SDS011;66079;47.646;19.130;2023-02-15T16:42:01;38.80;;;19.38;;
77123;SDS011;66079;47.646;19.130;2023-02-15T16:45:07;44.72;;;22.30;;
77123;SDS011;66079;47.646;19.130;2023-02-15T16:48:18;40.90;;;20.95;;
77123;SDS011;66079;47.646;19.130;2023-02-15T16:51:28;43.72;;;21.67;;
77123;SDS011;66079;47.646;19.130;2023-02-15T16:54:33;49.77;;;25.17;;
77123;SDS011;66079;47.646;19.130;2023-02-15T16:57:38;46.38;;;23.90;;
77123;SDS011;66079;47.646;19.130;2023-02-15T17:00:45;46.03;;;22.95;;
77123;SDS011;66079;47.646;19.130;2023-02-15T17:03:49;48.42;;;22.80;;
77123;SDS011;66079;47.646;19.130;2023-02-15T17:10:02;47.67;;;21.90;;
77123;SDS011;66079;47.646;19.130;2023-02-15T17:13:12;49.55;;;23.50;;
77123;SDS011;66079;47.646;19.130;2023-02-15T17:16:23;44.17;;;22.70;;
77123;SDS011;66079;47.646;19.130;2023-02-15T17:19:31;47.13;;;23.08;;
77123;SDS011;66079;47.646;19.130;2023-02-15T17:22:44;46.65;;;22.95;;
77123;SDS011;66079;47.646;19.130;2023-02-15T17:25:47;48.70;;;23.17;;
77123;SDS011;66079;47.646;19.130;2023-02-15T17:28:55;51.92;;;26.65;;
77123;SDS011;66079;47.646;19.130;2023-02-15T17:32:03;55.83;;;27.65;;
77123;SDS011;66079;47.646;19.130;2023-02-15T17:35:18;56.25;;;28.02;;
77123;SDS011;66079;47.646;19.130;2023-02-15T17:38:24;56.92;;;27.95;;
77123;SDS011;66079;47.646;19.130;2023-02-15T17:41:28;59.20;;;28.30;;
77123;SDS011;66079;47.646;19.130;2023-02-15T17:44:32;57.40;;;28.73;;
77123;SDS011;66079;47.646;19.130;2023-02-15T17:47:36;59.22;;;29.45;;
77123;SDS011;66079;47.646;19.130;2023-02-15T17:50:38;65.28;;;30.08;;
77123;SDS011;66079;47.646;19.130;2023-02-15T17:53:42;65.20;;;30.60;;
77123;SDS011;66079;47.646;19.130;2023-02-15T17:57:10;66.67;;;31.43;;
77123;SDS011;66079;47.646;19.130;2023-02-15T18:00:15;67.70;;;31.67;;
77123;SDS011;66079;47.646;19.130;2023-02-15T18:03:38;85.88;;;39.53;;
77123;SDS011;66079;47.646;19.130;2023-02-15T18:07:07;77.82;;;36.25;;
77123;SDS011;66079;47.646;19.130;2023-02-15T18:10:29;92.93;;;40.57;;
77123;SDS011;66079;47.646;19.130;2023-02-15T18:13:51;114.43;;;51.20;;
77123;SDS011;66079;47.646;19.130;2023-02-15T18:16:54;119.40;;;52.13;;
77123;SDS011;66079;47.646;19.130;2023-02-15T18:19:57;121.45;;;54.65;;
77123;SDS011;66079;47.646;19.130;2023-02-15T18:23:03;124.50;;;55.35;;
77123;SDS011;66079;47.646;19.130;2023-02-15T18:26:06;110.00;;;50.33;;
77123;SDS011;66079;47.646;19.130;2023-02-15T18:29:08;120.45;;;50.15;;
77123;SDS011;66079;47.646;19.130;2023-02-15T18:32:14;127.10;;;52.38;;
77123;SDS011;66079;47.646;19.130;2023-02-15T18:35:20;108.80;;;47.53;;
77123;SDS011;66079;47.646;19.130;2023-02-15T18:38:25;116.10;;;50.60;;
77123;SDS011;66079;47.646;19.130;2023-02-15T18:41:29;115.37;;;52.33;;
77123;SDS011;66079;47.646;19.130;2023-02-15T18:44:32;107.18;;;47.05;;
77123;SDS011;66079;47.646;19.130;2023-02-15T18:47:34;108.28;;;48.95;;
77123;SDS011;66079;47.646;19.130;2023-02-15T18:50:37;111.53;;;49.63;;
77123;SDS011;66079;47.646;19.130;2023-02-15T18:53:40;116.10;;;50.13;;
77123;SDS011;66079;47.646;19.130;2023-02-15T18:56:43;132.20;;;55.63;;
77123;SDS011;66079;47.646;19.130;2023-02-15T18:59:48;120.85;;;52.55;;
77123;SDS011;66079;47.646;19.130;2023-02-15T19:02:51;111.28;;;50.38;;
77123;SDS011;66079;47.646;19.130;2023-02-15T19:05:55;113.85;;;50.05;;
77123;SDS011;66079;47.646;19.130;2023-02-15T19:08:59;99.00;;;42.40;;
77123;SDS011;66079;47.646;19.130;2023-02-15T19:12:02;94.15;;;42.20;;
77123;SDS011;66079;47.646;19.130;2023-02-15T19:15:12;98.82;;;43.95;;
77123;SDS011;66079;47.646;19.130;2023-02-15T19:18:17;104.28;;;43.05;;
77123;SDS011;66079;47.646;19.130;2023-02-15T19:21:21;91.97;;;41.90;;
77123;SDS011;66079;47.646;19.130;2023-02-15T19:24:31;109.20;;;44.67;;
77123;SDS011;66079;47.646;19.130;2023-02-15T19:27:43;97.40;;;44.67;;
77123;SDS011;66079;47.646;19.130;2023-02-15T19:30:48;103.95;;;46.08;;
77123;SDS011;66079;47.646;19.130;2023-02-15T19:33:51;90.85;;;43.17;;
77123;SDS011;66079;47.646;19.130;2023-02-15T19:36:54;94.40;;;43.67;;
77123;SDS011;66079;47.646;19.130;2023-02-15T19:39:57;102.30;;;45.20;;
77123;SDS011;66079;47.646;19.130;2023-02-15T19:43:02;97.45;;;44.55;;
77123;SDS011;66079;47.646;19.130;2023-02-15T19:46:08;98.43;;;44.90;;
77123;SDS011;66079;47.646;19.130;2023-02-15T19:49:17;105.37;;;45.63;;
77123;SDS011;66079;47.646;19.130;2023-02-15T19:52:20;105.13;;;46.93;;
77123;SDS011;66079;47.646;19.130;2023-02-15T19:55:28;95.47;;;45.40;;
77123;SDS011;66079;47.646;19.130;2023-02-15T19:58:33;97.75;;;45.53;;
77123;SDS011;66079;47.646;19.130;2023-02-15T20:01:36;102.17;;;46.03;;
77123;SDS011;66079;47.646;19.130;2023-02-15T20:04:41;98.70;;;44.80;;
77123;SDS011;66079;47.646;19.130;2023-02-15T20:07:48;101.70;;;45.67;;
77123;SDS011;66079;47.646;19.130;2023-02-15T20:10:55;98.55;;;44.30;;
77123;SDS011;66079;47.646;19.130;2023-02-15T20:14:01;108.55;;;45.20;;
77123;SDS011;66079;47.646;19.130;2023-02-15T20:17:04;100.00;;;45.27;;
77123;SDS011;66079;47.646;19.130;2023-02-15T20:20:07;103.50;;;46.13;;
77123;SDS011;66079;47.646;19.130;2023-02-15T20:23:18;92.22;;;43.22;;
77123;SDS011;66079;47.646;19.130;2023-02-15T20:26:32;90.85;;;42.75;;
77123;SDS011;66079;47.646;19.130;2023-02-15T20:29:35;100.00;;;44.97;;
77123;SDS011;66079;47.646;19.130;2023-02-15T20:32:38;101.63;;;43.42;;
77123;SDS011;66079;47.646;19.130;2023-02-15T20:35:42;97.72;;;43.25;;
77123;SDS011;66079;47.646;19.130;2023-02-15T20:38:46;98.23;;;43.83;;
77123;SDS011;66079;47.646;19.130;2023-02-15T20:41:49;98.33;;;43.73;;
77123;SDS011;66079;47.646;19.130;2023-02-15T20:44:52;94.45;;;43.70;;
77123;SDS011;66079;47.646;19.130;2023-02-15T20:47:55;104.88;;;45.55;;
77123;SDS011;66079;47.646;19.130;2023-02-15T20:50:58;99.73;;;45.40;;